sensor_id;sensor_type;location;lat;lon;timestamp;P1;durP1;ratioP1;P2;durP2;ratioP2
79438;SDS011;68889;48.232;10.110;2023-06-19T00:00:50;11.75;;;8.68;;
79438;SDS011;68889;48.232;10.110;2023-06-19T00:03:16;11.15;;;8.75;;
79438;SDS011;68889;48.232;10.110;2023-06-19T00:05:41;9.77;;;8.77;;
79438;SDS011;68889;48.232;10.110;2023-06-19T00:08:07;11.25;;;9.30;;
79438;SDS011;68889;48.232;10.110;2023-06-19T00:10:33;9.50;;;8.50;;
79438;SDS011;68889;48.232;10.110;2023-06-19T00:12:58;10.88;;;9.77;;
79438;SDS011;68889;48.232;10.110;2023-06-19T00:15:24;10.38;;;8.98;;
79438;SDS011;68889;48.232;10.110;2023-06-19T00:17:50;10.40;;;9.20;;
79438;SDS011;68889;48.232;10.110;2023-06-19T00:20:15;9.90;;;8.88;;
79438;SDS011;68889;48.232;10.110;2023-06-19T00:22:41;9.93;;;8.75;;
79438;SDS011;68889;48.232;10.110;2023-06-19T00:25:07;10.25;;;9.13;;
79438;SDS011;68889;48.232;10.110;2023-06-19T00:27:32;9.68;;;8.68;;
79438;SDS011;68889;48.232;10.110;2023-06-19T00:29:58;10.80;;;9.68;;
79438;SDS011;68889;48.232;10.110;2023-06-19T00:32:30;9.68;;;8.68;;
79438;SDS011;68889;48.232;10.110;2023-06-19T00:34:55;11.43;;;9.07;;
79438;SDS011;68889;48.232;10.110;2023-06-19T00:37:21;10.27;;;8.82;;
79438;SDS011;68889;48.232;10.110;2023-06-19T00:39:47;11.32;;;9.35;;
79438;SDS011;68889;48.232;10.110;2023-06-19T00:42:12;11.63;;;10.10;;
79438;SDS011;68889;48.232;10.110;2023-06-19T00:44:38;10.60;;;9.40;;
79438;SDS011;68889;48.232;10.110;2023-06-19T00:47:04;11.40;;;10.10;;
79438;SDS011;68889;48.232;10.110;2023-06-19T00:49:30;11.77;;;10.32;;
79438;SDS011;68889;48.232;10.110;2023-06-19T00:51:56;11.73;;;10.60;;
79438;SDS011;68889;48.232;10.110;2023-06-19T00:54:22;12.15;;;9.90;;
79438;SDS011;68889;48.232;10.110;2023-06-19T00:56:48;11.77;;;10.45;;
79438;SDS011;68889;48.232;10.110;2023-06-19T00:59:16;13.57;;;10.55;;
79438;SDS011;68889;48.232;10.110;2023-06-19T01:01:43;12.73;;;9.77;;
79438;SDS011;68889;48.232;10.110;2023-06-19T01:04:09;12.40;;;10.45;;
79438;SDS011;68889;48.232;10.110;2023-06-19T01:06:42;14.98;;;10.43;;
79438;SDS011;68889;48.232;10.110;2023-06-19T01:09:15;11.20;;;10.10;;
79438;SDS011;68889;48.232;10.110;2023-06-19T01:11:49;12.80;;;11.50;;
79438;SDS011;68889;48.232;10.110;2023-06-19T01:14:37;13.07;;;10.57;;
79438;SDS011;68889;48.232;10.110;2023-06-19T01:17:07;12.55;;;10.38;;
79438;SDS011;68889;48.232;10.110;2023-06-19T01:19:33;12.13;;;10.82;;
79438;SDS011;68889;48.232;10.110;2023-06-19T01:22:04;11.48;;;10.27;;
79438;SDS011;68889;48.232;10.110;2023-06-19T01:24:29;11.77;;;10.57;;
79438;SDS011;68889;48.232;10.110;2023-06-19T01:26:55;11.68;;;10.13;;
79438;SDS011;68889;48.232;10.110;2023-06-19T01:29:21;11.48;;;10.18;;
79438;SDS011;68889;48.232;10.110;2023-06-19T01:31:54;11.10;;;9.95;;
79438;SDS011;68889;48.232;10.110;2023-06-19T01:34:21;11.75;;;9.77;;
79438;SDS011;68889;48.232;10.110;2023-06-19T01:36:50;11.60;;;9.70;;
79438;SDS011;68889;48.232;10.110;2023-06-19T01:39:17;11.27;;;10.05;;
79438;SDS011;68889;48.232;10.110;2023-06-19T01:41:45;10.75;;;8.93;;
79438;SDS011;68889;48.232;10.110;2023-06-19T01:44:11;11.82;;;8.93;;
79438;SDS011;68889;48.232;10.110;2023-06-19T01:46:36;10.52;;;9.32;;
79438;SDS011;68889;48.232;10.110;2023-06-19T01:49:05;10.57;;;9.38;;
79438;SDS011;68889;48.232;10.110;2023-06-19T01:51:32;10.25;;;8.63;;
79438;SDS011;68889;48.232;10.110;2023-06-19T01:53:58;11.55;;;9.77;;
79438;SDS011;68889;48.232;10.110;2023-06-19T01:56:23;11.52;;;9.52;;
79438;SDS011;68889;48.232;10.110;2023-06-19T01:58:49;11.75;;;9.70;;
79438;SDS011;68889;48.232;10.110;2023-06-19T02:01:14;11.07;;;9.75;;
79438;SDS011;68889;48.232;10.110;2023-06-19T02:03:40;12.98;;;9.95;;
79438;SDS011;68889;48.232;10.110;2023-06-19T02:06:05;10.20;;;9.18;;
79438;SDS011;68889;48.232;10.110;2023-06-19T02:08:32;10.80;;;9.70;;
79438;SDS011;68889;48.232;10.110;2023-06-19T02:10:57;11.15;;;10.00;;
79438;SDS011;68889;48.232;10.110;2023-06-19T02:13:23;11.55;;;9.90;;
79438;SDS011;68889;48.232;10.110;2023-06-19T02:15:48;12.48;;;9.75;;
79438;SDS011;68889;48.232;10.110;2023-06-19T02:18:14;11.02;;;9.27;;
79438;SDS011;68889;48.232;10.110;2023-06-19T02:20:39;10.85;;;9.48;;
79438;SDS011;68889;48.232;10.110;2023-06-19T02:23:05;10.75;;;9.05;;
79438;SDS011;68889;48.232;10.110;2023-06-19T02:25:31;11.27;;;9.50;;
79438;SDS011;68889;48.232;10.110;2023-06-19T02:27:56;11.27;;;9.60;;
79438;SDS011;68889;48.232;10.110;2023-06-19T02:30:22;10.70;;;9.25;;
79438;SDS011;68889;48.232;10.110;2023-06-19T02:32:47;12.30;;;9.40;;
79438;SDS011;68889;48.232;10.110;2023-06-19T02:35:13;10.23;;;9.10;;
79438;SDS011;68889;48.232;10.110;2023-06-19T02:37:40;10.18;;;9.07;;
79438;SDS011;68889;48.232;10.110;2023-06-19T02:40:06;11.43;;;9.40;;
79438;SDS011;68889;48.232;10.110;2023-06-19T02:42:33;11.57;;;8.85;;
79438;SDS011;68889;48.232;10.110;2023-06-19T02:44:59;12.57;;;8.88;;
79438;SDS011;68889;48.232;10.110;2023-06-19T02:47:28;10.10;;;8.93;;
79438;SDS011;68889;48.232;10.110;2023-06-19T02:49:56;10.40;;;9.07;;
79438;SDS011;68889;48.232;10.110;2023-06-19T02:52:25;10.48;;;8.77;;
79438;SDS011;68889;48.232;10.110;2023-06-19T02:54:51;10.10;;;8.63;;
79438;SDS011;68889;48.232;10.110;2023-06-19T02:57:16;10.13;;;8.48;;
79438;SDS011;68889;48.232;10.110;2023-06-19T02:59:42;10.32;;;8.75;;
79438;SDS011;68889;48.232;10.110;2023-06-19T03:02:07;10.38;;;8.80;;
79438;SDS011;68889;48.232;10.110;2023-06-19T03:04:33;10.32;;;8.27;;
79438;SDS011;68889;48.232;10.110;2023-06-19T03:06:58;9.73;;;8.10;;
79438;SDS011;68889;48.232;10.110;2023-06-19T03:09:24;8.30;;;7.47;;
79438;SDS011;68889;48.232;10.110;2023-06-19T03:11:49;8.98;;;7.80;;
79438;SDS011;68889;48.232;10.110;2023-06-19T03:14:15;8.85;;;7.63;;
79438;SDS011;68889;48.232;10.110;2023-06-19T03:16:40;8.05;;;7.25;;
79438;SDS011;68889;48.232;10.110;2023-06-19T03:19:06;9.82;;;7.90;;
79438;SDS011;68889;48.232;10.110;2023-06-19T03:21:31;9.55;;;7.70;;
79438;SDS011;68889;48.232;10.110;2023-06-19T03:23:57;9.75;;;8.75;;
79438;SDS011;68889;48.232;10.110;2023-06-19T03:26:23;8.68;;;7.70;;
79438;SDS011;68889;48.232;10.110;2023-06-19T03:28:49;9.05;;;7.65;;
79438;SDS011;68889;48.232;10.110;2023-06-19T03:31:15;9.75;;;7.97;;
79438;SDS011;68889;48.232;10.110;2023-06-19T03:33:41;8.82;;;7.93;;
79438;SDS011;68889;48.232;10.110;2023-06-19T03:36:07;8.18;;;7.38;;
79438;SDS011;68889;48.232;10.110;2023-06-19T03:38:32;8.57;;;7.45;;
79438;SDS011;68889;48.232;10.110;2023-06-19T03:40:58;8.52;;;7.65;;
79438;SDS011;68889;48.232;10.110;2023-06-19T03:43:24;8.57;;;7.75;;
79438;SDS011;68889;48.232;10.110;2023-06-19T03:45:49;8.50;;;7.68;;
79438;SDS011;68889;48.232;10.110;2023-06-19T03:48:15;9.23;;;8.07;;
79438;SDS011;68889;48.232;10.110;2023-06-19T03:50:42;10.18;;;7.97;;
79438;SDS011;68889;48.232;10.110;2023-06-19T03:53:07;8.93;;;8.00;;
79438;SDS011;68889;48.232;10.110;2023-06-19T03:55:33;9.93;;;8.02;;
79438;SDS011;68889;48.232;10.110;2023-06-19T03:57:59;9.18;;;7.90;;
79438;SDS011;68889;48.232;10.110;2023-06-19T04:00:24;10.00;;;7.35;;
79438;SDS011;68889;48.232;10.110;2023-06-19T04:02:50;8.25;;;7.45;;
79438;SDS011;68889;48.232;10.110;2023-06-19T04:05:15;9.38;;;8.38;;
79438;SDS011;68889;48.232;10.110;2023-06-19T04:07:41;8.00;;;7.15;;
79438;SDS011;68889;48.232;10.110;2023-06-19T04:10:07;8.38;;;7.50;;
79438;SDS011;68889;48.232;10.110;2023-06-19T04:12:33;8.15;;;7.13;;
79438;SDS011;68889;48.232;10.110;2023-06-19T04:14:59;8.68;;;7.78;;
79438;SDS011;68889;48.232;10.110;2023-06-19T04:17:25;8.95;;;7.47;;
79438;SDS011;68889;48.232;10.110;2023-06-19T04:19:50;8.85;;;7.70;;
79438;SDS011;68889;48.232;10.110;2023-06-19T04:22:16;8.38;;;7.20;;
79438;SDS011;68889;48.232;10.110;2023-06-19T04:24:41;8.20;;;7.00;;
79438;SDS011;68889;48.232;10.110;2023-06-19T04:27:07;8.70;;;7.80;;
79438;SDS011;68889;48.232;10.110;2023-06-19T04:29:33;9.18;;;7.53;;
79438;SDS011;68889;48.232;10.110;2023-06-19T04:31:59;8.15;;;7.35;;
79438;SDS011;68889;48.232;10.110;2023-06-19T04:34:27;8.20;;;7.30;;
79438;SDS011;68889;48.232;10.110;2023-06-19T04:36:53;9.45;;;8.10;;
79438;SDS011;68889;48.232;10.110;2023-06-19T04:39:23;8.18;;;7.38;;
79438;SDS011;68889;48.232;10.110;2023-06-19T04:41:49;9.52;;;7.53;;
79438;SDS011;68889;48.232;10.110;2023-06-19T04:44:14;8.52;;;7.60;;
79438;SDS011;68889;48.232;10.110;2023-06-19T04:46:40;8.50;;;6.97;;
79438;SDS011;68889;48.232;10.110;2023-06-19T04:51:32;7.70;;;6.90;;
79438;SDS011;68889;48.232;10.110;2023-06-19T04:53:58;8.25;;;6.82;;
79438;SDS011;68889;48.232;10.110;2023-06-19T04:56:24;9.52;;;7.20;;
79438;SDS011;68889;48.232;10.110;2023-06-19T04:58:50;8.40;;;7.10;;
79438;SDS011;68889;48.232;10.110;2023-06-19T05:01:16;8.35;;;7.38;;
79438;SDS011;68889;48.232;10.110;2023-06-19T05:06:09;7.88;;;6.57;;
79438;SDS011;68889;48.232;10.110;2023-06-19T05:08:34;7.45;;;6.40;;
79438;SDS011;68889;48.232;10.110;2023-06-19T05:11:00;7.78;;;6.43;;
79438;SDS011;68889;48.232;10.110;2023-06-19T05:13:25;8.85;;;7.65;;
79438;SDS011;68889;48.232;10.110;2023-06-19T05:15:51;9.43;;;7.57;;
79438;SDS011;68889;48.232;10.110;2023-06-19T05:20:43;8.93;;;6.75;;
79438;SDS011;68889;48.232;10.110;2023-06-19T05:23:09;9.48;;;7.28;;
79438;SDS011;68889;48.232;10.110;2023-06-19T05:25:34;7.32;;;6.60;;
79438;SDS011;68889;48.232;10.110;2023-06-19T05:28:00;7.57;;;6.65;;
79438;SDS011;68889;48.232;10.110;2023-06-19T05:30:25;9.20;;;7.45;;
79438;SDS011;68889;48.232;10.110;2023-06-19T05:32:51;9.65;;;6.90;;
79438;SDS011;68889;48.232;10.110;2023-06-19T05:37:42;7.20;;;6.43;;
79438;SDS011;68889;48.232;10.110;2023-06-19T05:40:08;7.65;;;6.82;;
79438;SDS011;68889;48.232;10.110;2023-06-19T05:42:38;9.75;;;7.60;;
79438;SDS011;68889;48.232;10.110;2023-06-19T05:45:07;9.20;;;6.95;;
79438;SDS011;68889;48.232;10.110;2023-06-19T05:47:32;8.45;;;7.05;;
79438;SDS011;68889;48.232;10.110;2023-06-19T05:49:58;7.93;;;6.75;;
79438;SDS011;68889;48.232;10.110;2023-06-19T05:54:50;8.20;;;6.93;;
79438;SDS011;68889;48.232;10.110;2023-06-19T05:57:16;8.88;;;7.07;;
79438;SDS011;68889;48.232;10.110;2023-06-19T05:59:45;11.25;;;7.55;;
79438;SDS011;68889;48.232;10.110;2023-06-19T06:02:11;8.07;;;6.50;;
79438;SDS011;68889;48.232;10.110;2023-06-19T06:04:37;7.57;;;6.82;;
79438;SDS011;68889;48.232;10.110;2023-06-19T06:07:03;7.68;;;6.88;;
79438;SDS011;68889;48.232;10.110;2023-06-19T06:11:54;9.82;;;6.57;;
79438;SDS011;68889;48.232;10.110;2023-06-19T06:14:19;8.75;;;6.90;;
79438;SDS011;68889;48.232;10.110;2023-06-19T06:16:45;8.23;;;6.60;;
79438;SDS011;68889;48.232;10.110;2023-06-19T06:21:36;7.50;;;6.22;;
79438;SDS011;68889;48.232;10.110;2023-06-19T06:26:27;6.75;;;6.05;;
79438;SDS011;68889;48.232;10.110;2023-06-19T06:28:53;6.60;;;5.65;;
79438;SDS011;68889;48.232;10.110;2023-06-19T06:31:19;6.15;;;5.55;;
79438;SDS011;68889;48.232;10.110;2023-06-19T06:33:45;8.68;;;5.90;;
79438;SDS011;68889;48.232;10.110;2023-06-19T06:36:10;7.13;;;6.05;;
79438;SDS011;68889;48.232;10.110;2023-06-19T06:38:36;6.22;;;5.20;;
79438;SDS011;68889;48.232;10.110;2023-06-19T06:41:01;7.38;;;5.60;;
79438;SDS011;68889;48.232;10.110;2023-06-19T06:45:53;7.07;;;5.05;;
79438;SDS011;68889;48.232;10.110;2023-06-19T06:50:44;6.47;;;5.20;;
79438;SDS011;68889;48.232;10.110;2023-06-19T06:55:35;5.72;;;5.15;;
79438;SDS011;68889;48.232;10.110;2023-06-19T07:00:26;7.03;;;5.65;;
79438;SDS011;68889;48.232;10.110;2023-06-19T07:05:17;5.90;;;4.72;;
79438;SDS011;68889;48.232;10.110;2023-06-19T07:10:08;5.38;;;4.78;;
79438;SDS011;68889;48.232;10.110;2023-06-19T07:12:34;5.32;;;4.55;;
79438;SDS011;68889;48.232;10.110;2023-06-19T07:17:25;5.32;;;4.70;;
79438;SDS011;68889;48.232;10.110;2023-06-19T07:19:51;11.00;;;5.22;;
79438;SDS011;68889;48.232;10.110;2023-06-19T07:24:42;4.63;;;4.18;;
79438;SDS011;68889;48.232;10.110;2023-06-19T07:27:07;7.57;;;4.80;;
79438;SDS011;68889;48.232;10.110;2023-06-19T07:29:33;5.22;;;4.35;;
79438;SDS011;68889;48.232;10.110;2023-06-19T07:31:58;4.82;;;4.22;;
79438;SDS011;68889;48.232;10.110;2023-06-19T07:34:27;5.78;;;4.40;;
79438;SDS011;68889;48.232;10.110;2023-06-19T07:39:18;4.68;;;4.18;;
79438;SDS011;68889;48.232;10.110;2023-06-19T07:41:44;5.25;;;4.50;;
79438;SDS011;68889;48.232;10.110;2023-06-19T07:44:10;4.88;;;4.35;;
79438;SDS011;68889;48.232;10.110;2023-06-19T07:46:36;6.00;;;4.00;;
79438;SDS011;68889;48.232;10.110;2023-06-19T07:51:27;4.60;;;3.90;;
79438;SDS011;68889;48.232;10.110;2023-06-19T07:56:18;3.90;;;3.40;;
79438;SDS011;68889;48.232;10.110;2023-06-19T08:01:09;5.43;;;3.47;;
79438;SDS011;68889;48.232;10.110;2023-06-19T08:03:35;4.15;;;3.58;;
79438;SDS011;68889;48.232;10.110;2023-06-19T08:08:26;3.88;;;3.40;;
79438;SDS011;68889;48.232;10.110;2023-06-19T08:10:52;4.80;;;3.83;;
79438;SDS011;68889;48.232;10.110;2023-06-19T08:15:43;4.65;;;4.05;;
79438;SDS011;68889;48.232;10.110;2023-06-19T08:18:10;4.63;;;4.00;;
79438;SDS011;68889;48.232;10.110;2023-06-19T08:23:01;5.75;;;3.72;;
79438;SDS011;68889;48.232;10.110;2023-06-19T08:25:26;5.10;;;3.78;;
79438;SDS011;68889;48.232;10.110;2023-06-19T08:30:18;4.25;;;3.70;;
79438;SDS011;68889;48.232;10.110;2023-06-19T08:35:09;5.03;;;3.90;;
79438;SDS011;68889;48.232;10.110;2023-06-19T08:37:34;5.20;;;4.07;;
79438;SDS011;68889;48.232;10.110;2023-06-19T08:40:00;6.25;;;4.10;;
79438;SDS011;68889;48.232;10.110;2023-06-19T08:44:51;4.13;;;3.72;;
79438;SDS011;68889;48.232;10.110;2023-06-19T08:47:18;8.25;;;4.55;;
79438;SDS011;68889;48.232;10.110;2023-06-19T08:49:45;4.50;;;3.90;;
79438;SDS011;68889;48.232;10.110;2023-06-19T08:52:11;5.15;;;4.07;;
79438;SDS011;68889;48.232;10.110;2023-06-19T08:54:37;4.72;;;3.80;;
79438;SDS011;68889;48.232;10.110;2023-06-19T08:57:08;5.75;;;4.63;;
79438;SDS011;68889;48.232;10.110;2023-06-19T08:59:35;6.63;;;4.00;;
79438;SDS011;68889;48.232;10.110;2023-06-19T09:02:00;5.13;;;4.30;;
79438;SDS011;68889;48.232;10.110;2023-06-19T09:04:26;5.20;;;4.28;;
79438;SDS011;68889;48.232;10.110;2023-06-19T09:06:59;5.72;;;4.18;;
79438;SDS011;68889;48.232;10.110;2023-06-19T09:09:28;5.35;;;4.25;;
79438;SDS011;68889;48.232;10.110;2023-06-19T09:14:37;6.85;;;4.60;;
79438;SDS011;68889;48.232;10.110;2023-06-19T09:17:10;4.95;;;4.45;;
79438;SDS011;68889;48.232;10.110;2023-06-19T09:19:37;4.88;;;4.30;;
79438;SDS011;68889;48.232;10.110;2023-06-19T09:22:05;6.00;;;4.57;;
79438;SDS011;68889;48.232;10.110;2023-06-19T09:24:38;6.00;;;4.50;;
79438;SDS011;68889;48.232;10.110;2023-06-19T09:27:08;4.75;;;4.25;;
79438;SDS011;68889;48.232;10.110;2023-06-19T09:29:39;6.70;;;4.32;;
79438;SDS011;68889;48.232;10.110;2023-06-19T09:32:18;5.43;;;4.53;;
79438;SDS011;68889;48.232;10.110;2023-06-19T09:34:46;8.55;;;4.68;;
79438;SDS011;68889;48.232;10.110;2023-06-19T09:37:13;5.78;;;4.15;;
79438;SDS011;68889;48.232;10.110;2023-06-19T09:39:38;4.97;;;4.40;;
79438;SDS011;68889;48.232;10.110;2023-06-19T09:42:06;4.30;;;3.90;;
79438;SDS011;68889;48.232;10.110;2023-06-19T09:44:34;5.90;;;4.15;;
79438;SDS011;68889;48.232;10.110;2023-06-19T09:47:08;4.90;;;4.13;;
79438;SDS011;68889;48.232;10.110;2023-06-19T09:49:55;5.03;;;4.07;;
79438;SDS011;68889;48.232;10.110;2023-06-19T09:52:22;4.55;;;4.00;;
79438;SDS011;68889;48.232;10.110;2023-06-19T09:54:52;5.07;;;4.10;;
79438;SDS011;68889;48.232;10.110;2023-06-19T09:57:18;4.75;;;4.13;;
79438;SDS011;68889;48.232;10.110;2023-06-19T09:59:46;4.47;;;3.55;;
79438;SDS011;68889;48.232;10.110;2023-06-19T10:02:14;4.53;;;4.10;;
79438;SDS011;68889;48.232;10.110;2023-06-19T10:04:44;4.53;;;4.10;;
79438;SDS011;68889;48.232;10.110;2023-06-19T10:07:15;4.32;;;3.80;;
79438;SDS011;68889;48.232;10.110;2023-06-19T10:09:54;4.50;;;3.85;;
79438;SDS011;68889;48.232;10.110;2023-06-19T10:12:20;5.25;;;4.10;;
79438;SDS011;68889;48.232;10.110;2023-06-19T10:14:48;5.20;;;4.25;;
79438;SDS011;68889;48.232;10.110;2023-06-19T10:17:18;4.60;;;4.20;;
79438;SDS011;68889;48.232;10.110;2023-06-19T10:19:50;4.50;;;4.10;;
79438;SDS011;68889;48.232;10.110;2023-06-19T10:22:20;4.50;;;4.10;;
79438;SDS011;68889;48.232;10.110;2023-06-19T10:24:50;4.72;;;4.22;;
79438;SDS011;68889;48.232;10.110;2023-06-19T10:27:20;4.88;;;4.38;;
79438;SDS011;68889;48.232;10.110;2023-06-19T10:29:51;5.05;;;4.50;;
79438;SDS011;68889;48.232;10.110;2023-06-19T10:32:19;5.50;;;4.47;;
79438;SDS011;68889;48.232;10.110;2023-06-19T10:34:46;4.60;;;4.18;;
79438;SDS011;68889;48.232;10.110;2023-06-19T10:37:13;4.32;;;3.90;;
79438;SDS011;68889;48.232;10.110;2023-06-19T10:39:42;5.00;;;4.25;;
79438;SDS011;68889;48.232;10.110;2023-06-19T10:42:09;4.80;;;4.40;;
79438;SDS011;68889;48.232;10.110;2023-06-19T10:44:35;4.97;;;4.47;;
79438;SDS011;68889;48.232;10.110;2023-06-19T10:47:04;5.22;;;4.05;;
79438;SDS011;68889;48.232;10.110;2023-06-19T10:49:32;5.00;;;4.57;;
79438;SDS011;68889;48.232;10.110;2023-06-19T10:51:59;5.53;;;4.13;;
79438;SDS011;68889;48.232;10.110;2023-06-19T10:54:25;3.63;;;3.33;;
79438;SDS011;68889;48.232;10.110;2023-06-19T10:56:51;3.80;;;3.05;;
79438;SDS011;68889;48.232;10.110;2023-06-19T10:59:16;3.50;;;3.20;;
79438;SDS011;68889;48.232;10.110;2023-06-19T11:01:44;3.72;;;3.17;;
79438;SDS011;68889;48.232;10.110;2023-06-19T11:04:12;3.58;;;3.17;;
79438;SDS011;68889;48.232;10.110;2023-06-19T11:06:38;4.68;;;3.47;;
79438;SDS011;68889;48.232;10.110;2023-06-19T11:09:08;3.65;;;3.33;;
79438;SDS011;68889;48.232;10.110;2023-06-19T11:11:42;3.50;;;3.17;;
79438;SDS011;68889;48.232;10.110;2023-06-19T11:14:09;5.30;;;4.18;;
79438;SDS011;68889;48.232;10.110;2023-06-19T11:16:42;4.72;;;3.67;;
79438;SDS011;68889;48.232;10.110;2023-06-19T11:19:17;4.03;;;3.63;;
79438;SDS011;68889;48.232;10.110;2023-06-19T11:22:04;3.65;;;3.28;;
79438;SDS011;68889;48.232;10.110;2023-06-19T11:24:32;4.15;;;3.17;;
79438;SDS011;68889;48.232;10.110;2023-06-19T11:26:57;4.25;;;3.85;;
79438;SDS011;68889;48.232;10.110;2023-06-19T11:29:30;5.20;;;3.45;;
79438;SDS011;68889;48.232;10.110;2023-06-19T11:32:12;3.50;;;3.20;;
79438;SDS011;68889;48.232;10.110;2023-06-19T11:34:38;3.75;;;3.33;;
79438;SDS011;68889;48.232;10.110;2023-06-19T11:37:17;3.45;;;3.15;;
79438;SDS011;68889;48.232;10.110;2023-06-19T11:39:44;4.45;;;3.47;;
79438;SDS011;68889;48.232;10.110;2023-06-19T11:42:10;3.78;;;3.47;;
79438;SDS011;68889;48.232;10.110;2023-06-19T11:44:35;4.07;;;3.58;;
79438;SDS011;68889;48.232;10.110;2023-06-19T11:47:18;3.78;;;3.47;;
79438;SDS011;68889;48.232;10.110;2023-06-19T11:49:43;3.70;;;3.22;;
79438;SDS011;68889;48.232;10.110;2023-06-19T11:52:13;4.43;;;3.60;;
79438;SDS011;68889;48.232;10.110;2023-06-19T11:54:38;4.10;;;3.70;;
79438;SDS011;68889;48.232;10.110;2023-06-19T11:57:04;4.03;;;3.40;;
79438;SDS011;68889;48.232;10.110;2023-06-19T11:59:30;3.42;;;3.13;;
79438;SDS011;68889;48.232;10.110;2023-06-19T12:01:55;4.88;;;3.55;;
79438;SDS011;68889;48.232;10.110;2023-06-19T12:04:23;4.40;;;4.00;;
79438;SDS011;68889;48.232;10.110;2023-06-19T12:06:49;4.07;;;3.55;;
79438;SDS011;68889;48.232;10.110;2023-06-19T12:09:14;5.13;;;3.88;;
79438;SDS011;68889;48.232;10.110;2023-06-19T12:11:40;4.40;;;3.63;;
79438;SDS011;68889;48.232;10.110;2023-06-19T12:14:06;4.60;;;3.85;;
79438;SDS011;68889;48.232;10.110;2023-06-19T12:16:31;4.00;;;3.60;;
79438;SDS011;68889;48.232;10.110;2023-06-19T12:18:57;4.40;;;3.47;;
79438;SDS011;68889;48.232;10.110;2023-06-19T12:21:23;4.22;;;3.67;;
79438;SDS011;68889;48.232;10.110;2023-06-19T12:23:48;4.07;;;3.55;;
79438;SDS011;68889;48.232;10.110;2023-06-19T12:26:14;4.65;;;3.70;;
79438;SDS011;68889;48.232;10.110;2023-06-19T12:28:39;5.25;;;3.90;;
79438;SDS011;68889;48.232;10.110;2023-06-19T12:31:05;4.40;;;4.00;;
79438;SDS011;68889;48.232;10.110;2023-06-19T12:33:31;4.78;;;4.20;;
79438;SDS011;68889;48.232;10.110;2023-06-19T12:35:57;4.65;;;4.25;;
79438;SDS011;68889;48.232;10.110;2023-06-19T12:38:23;4.82;;;4.43;;
79438;SDS011;68889;48.232;10.110;2023-06-19T12:40:49;4.25;;;3.95;;
79438;SDS011;68889;48.232;10.110;2023-06-19T12:43:14;4.95;;;4.25;;
79438;SDS011;68889;48.232;10.110;2023-06-19T12:45:40;4.95;;;4.28;;
79438;SDS011;68889;48.232;10.110;2023-06-19T12:48:06;4.43;;;4.03;;
79438;SDS011;68889;48.232;10.110;2023-06-19T12:50:32;5.10;;;4.43;;
79438;SDS011;68889;48.232;10.110;2023-06-19T12:52:58;4.50;;;3.92;;
79438;SDS011;68889;48.232;10.110;2023-06-19T12:55:23;5.10;;;4.57;;
79438;SDS011;68889;48.232;10.110;2023-06-19T12:57:49;4.55;;;4.15;;
79438;SDS011;68889;48.232;10.110;2023-06-19T13:00:14;4.82;;;4.32;;
79438;SDS011;68889;48.232;10.110;2023-06-19T13:02:40;4.93;;;4.50;;
79438;SDS011;68889;48.232;10.110;2023-06-19T13:05:08;4.45;;;4.03;;
79438;SDS011;68889;48.232;10.110;2023-06-19T13:07:34;6.00;;;4.68;;
79438;SDS011;68889;48.232;10.110;2023-06-19T13:10:00;4.72;;;4.32;;
79438;SDS011;68889;48.232;10.110;2023-06-19T13:12:26;5.53;;;4.93;;
79438;SDS011;68889;48.232;10.110;2023-06-19T13:14:51;4.88;;;4.40;;
79438;SDS011;68889;48.232;10.110;2023-06-19T13:17:19;5.65;;;4.47;;
79438;SDS011;68889;48.232;10.110;2023-06-19T13:19:44;6.05;;;5.05;;
79438;SDS011;68889;48.232;10.110;2023-06-19T13:22:10;5.20;;;4.70;;
79438;SDS011;68889;48.232;10.110;2023-06-19T13:24:35;5.30;;;4.65;;
79438;SDS011;68889;48.232;10.110;2023-06-19T13:27:01;4.75;;;4.22;;
79438;SDS011;68889;48.232;10.110;2023-06-19T13:29:27;5.57;;;4.10;;
79438;SDS011;68889;48.232;10.110;2023-06-19T13:31:53;5.70;;;5.20;;
79438;SDS011;68889;48.232;10.110;2023-06-19T13:34:18;5.00;;;4.50;;
79438;SDS011;68889;48.232;10.110;2023-06-19T13:36:46;5.78;;;4.88;;
79438;SDS011;68889;48.232;10.110;2023-06-19T13:39:12;5.93;;;4.00;;
79438;SDS011;68889;48.232;10.110;2023-06-19T13:41:38;5.10;;;4.60;;
79438;SDS011;68889;48.232;10.110;2023-06-19T13:44:03;5.18;;;4.78;;
79438;SDS011;68889;48.232;10.110;2023-06-19T13:46:29;5.80;;;5.20;;
79438;SDS011;68889;48.232;10.110;2023-06-19T13:48:56;5.43;;;4.90;;
79438;SDS011;68889;48.232;10.110;2023-06-19T13:51:22;4.80;;;4.40;;
79438;SDS011;68889;48.232;10.110;2023-06-19T13:53:49;5.07;;;4.68;;
79438;SDS011;68889;48.232;10.110;2023-06-19T13:56:15;5.28;;;4.78;;
79438;SDS011;68889;48.232;10.110;2023-06-19T13:58:41;8.95;;;5.15;;
79438;SDS011;68889;48.232;10.110;2023-06-19T14:01:07;5.22;;;4.82;;
79438;SDS011;68889;48.232;10.110;2023-06-19T14:03:34;5.55;;;4.60;;
79438;SDS011;68889;48.232;10.110;2023-06-19T14:06:01;5.60;;;5.07;;
79438;SDS011;68889;48.232;10.110;2023-06-19T14:08:27;5.50;;;5.05;;
79438;SDS011;68889;48.232;10.110;2023-06-19T14:10:54;5.18;;;4.68;;
79438;SDS011;68889;48.232;10.110;2023-06-19T14:13:20;6.93;;;4.90;;
79438;SDS011;68889;48.232;10.110;2023-06-19T14:15:45;5.00;;;4.50;;
79438;SDS011;68889;48.232;10.110;2023-06-19T14:18:11;5.40;;;4.90;;
79438;SDS011;68889;48.232;10.110;2023-06-19T14:20:36;5.80;;;5.30;;
79438;SDS011;68889;48.232;10.110;2023-06-19T14:23:03;4.80;;;4.30;;
79438;SDS011;68889;48.232;10.110;2023-06-19T14:25:28;5.28;;;4.78;;
79438;SDS011;68889;48.232;10.110;2023-06-19T14:27:54;5.63;;;4.47;;
79438;SDS011;68889;48.232;10.110;2023-06-19T14:30:19;5.47;;;4.97;;
79438;SDS011;68889;48.232;10.110;2023-06-19T14:32:45;7.35;;;5.38;;
79438;SDS011;68889;48.232;10.110;2023-06-19T14:35:12;5.45;;;4.88;;
79438;SDS011;68889;48.232;10.110;2023-06-19T14:37:37;5.07;;;4.50;;
79438;SDS011;68889;48.232;10.110;2023-06-19T14:40:03;5.43;;;5.00;;
79438;SDS011;68889;48.232;10.110;2023-06-19T14:42:29;6.07;;;4.55;;
79438;SDS011;68889;48.232;10.110;2023-06-19T14:44:55;5.38;;;4.88;;
79438;SDS011;68889;48.232;10.110;2023-06-19T14:47:20;5.20;;;4.80;;
79438;SDS011;68889;48.232;10.110;2023-06-19T14:49:46;5.20;;;4.70;;
79438;SDS011;68889;48.232;10.110;2023-06-19T14:52:12;5.57;;;5.07;;
79438;SDS011;68889;48.232;10.110;2023-06-19T14:54:38;5.20;;;4.70;;
79438;SDS011;68889;48.232;10.110;2023-06-19T14:57:04;5.22;;;4.80;;
79438;SDS011;68889;48.232;10.110;2023-06-19T14:59:30;6.18;;;5.68;;
79438;SDS011;68889;48.232;10.110;2023-06-19T15:01:55;5.53;;;5.03;;
79438;SDS011;68889;48.232;10.110;2023-06-19T15:04:21;5.03;;;4.53;;
79438;SDS011;68889;48.232;10.110;2023-06-19T15:06:47;5.43;;;4.82;;
79438;SDS011;68889;48.232;10.110;2023-06-19T15:09:13;5.30;;;4.80;;
79438;SDS011;68889;48.232;10.110;2023-06-19T15:11:39;6.60;;;4.85;;
79438;SDS011;68889;48.232;10.110;2023-06-19T15:14:04;5.70;;;5.20;;
79438;SDS011;68889;48.232;10.110;2023-06-19T15:16:30;5.15;;;4.65;;
79438;SDS011;68889;48.232;10.110;2023-06-19T15:18:55;5.25;;;4.78;;
79438;SDS011;68889;48.232;10.110;2023-06-19T15:21:21;6.60;;;4.65;;
79438;SDS011;68889;48.232;10.110;2023-06-19T15:23:46;4.63;;;4.22;;
79438;SDS011;68889;48.232;10.110;2023-06-19T15:26:13;4.97;;;4.57;;
79438;SDS011;68889;48.232;10.110;2023-06-19T15:28:39;4.88;;;4.47;;
79438;SDS011;68889;48.232;10.110;2023-06-19T15:31:05;5.13;;;4.63;;
79438;SDS011;68889;48.232;10.110;2023-06-19T15:33:32;5.43;;;4.93;;